< Typhoon 199001 1990 Season Typhoon 199003 >
Typhoon 199002 (LEWIS)
General InformationTrack Information on Google MapsDetailed Wind InformationList of All Images || Disaster Info.ResourceGoogle EarthGE AnimationAtom FeedGeoJSON
Detalied Best Track (Time Zone = UTC)
Year Month Day Hour Lat. Long. Pressure (hPa) Wind (kt) Class Image Chart
1990 4 28 06 6.0 152.0 1006 0 2 Image Chart
1990 4 28 12 7.0 152.0 1006 0 2 Image Chart
1990 4 28 18 8.0 151.0 1004 0 2 Image Chart
1990 4 29 00 8.5 150.5 1004 0 2 Image Chart
1990 4 29 06 9.5 150.5 1002 0 2 Image Chart
1990 4 29 12 10.0 150.5 1000 0 2 Image Chart
1990 4 29 18 10.5 150.5 998 35 3 Image Chart
1990 4 30 00 10.9 150.7 998 35 3 Image Chart
1990 4 30 06 11.2 150.8 998 35 3 Image Chart
1990 4 30 12 11.4 151.0 998 35 3 Image Chart
1990 4 30 18 11.5 151.5 998 35 3 Image Chart
1990 5 1 00 11.7 151.9 998 35 3 Image Chart
1990 5 1 06 12.0 152.3 998 35 3 Image Chart
1990 5 1 12 12.5 152.5 998 35 3 Image Chart
1990 5 1 18 12.8 152.5 998 35 3 Image Chart
1990 5 2 00 13.0 152.4 998 35 3 Image Chart
1990 5 2 06 13.3 152.0 998 35 3 Image Chart
1990 5 2 12 13.7 151.7 998 35 3 Image Chart
1990 5 2 18 14.1 151.4 998 35 3 Image Chart
1990 5 3 00 14.4 151.0 998 35 3 Image Chart
1990 5 3 06 14.8 150.4 998 35 3 Image Chart
1990 5 3 12 15.1 149.5 998 35 3 Image Chart
1990 5 3 18 15.5 148.7 1000 0 2 Image Chart
1990 5 4 00 16.0 148.0 1004 0 2 Image Chart
1990 5 4 06 16.0 147.0 1006 0 2 Image Chart
Japan Meteorological Agency Best Track Data | Correction Date : 1992-10-21
< Typhoon 199001 1990 Season Typhoon 199003 >

Help